NRL475 CYVO-KBOS
Flight info
| Callsign | NRL475 |
|---|---|
| Flight time | N/A |
| Altitude | FL350 |
| Route | YVO V487 YMW MSS ALB GDM4 |
| Aircraft | B732/M-VD/C |
Departure
| Time | 2026-04-18 19:41 |
|---|---|
| Airport | Val-d'Or Airport (CYVO) |
Arrival
| Time | N/A |
|---|---|
| Airport | Boston Logan International Airport (KBOS) |
| Time | Latitude | Longitude | Altitude | Speed | Heading |
|---|---|---|---|---|---|
| 2026-04-18 19:29 | 48.05217 | -77.78640 | 1098 ft | 0 kts | 303° |
| 2026-04-18 19:35 | 48.05218 | -77.78641 | 1098 ft | 0 kts | 303° |
| 2026-04-18 19:35 | 48.05219 | -77.78644 | 1098 ft | 0 kts | 303° |
| 2026-04-18 19:35 | 48.05225 | -77.78651 | 1098 ft | 3 kts | 332° |
| 2026-04-18 19:36 | 48.05262 | -77.78628 | 1098 ft | 7 kts | 65° |
| 2026-04-18 19:36 | 48.05279 | -77.78571 | 1097 ft | 4 kts | 66° |
| 2026-04-18 19:36 | 48.05293 | -77.78523 | 1097 ft | 7 kts | 68° |
| 2026-04-18 19:36 | 48.05308 | -77.78440 | 1095 ft | 10 kts | 79° |
| 2026-04-18 19:37 | 48.05323 | -77.78323 | 1093 ft | 10 kts | 76° |
| 2026-04-18 19:37 | 48.05395 | -77.78283 | 1094 ft | 15 kts | 340° |
| 2026-04-18 19:37 | 48.05516 | -77.78337 | 1095 ft | 20 kts | 347° |
| 2026-04-18 19:37 | 48.05650 | -77.78380 | 1097 ft | 18 kts | 349° |
| 2026-04-18 19:38 | 48.05758 | -77.78409 | 1098 ft | 14 kts | 349° |
| 2026-04-18 19:38 | 48.05837 | -77.78431 | 1099 ft | 9 kts | 349° |
| 2026-04-18 19:38 | 48.05888 | -77.78445 | 1100 ft | 7 kts | 349° |
| 2026-04-18 19:38 | 48.05947 | -77.78462 | 1100 ft | 11 kts | 349° |
| 2026-04-18 19:39 | 48.06048 | -77.78489 | 1101 ft | 18 kts | 349° |
| 2026-04-18 19:39 | 48.06189 | -77.78535 | 1101 ft | 24 kts | 346° |
| 2026-04-18 19:39 | 48.06351 | -77.78588 | 1102 ft | 22 kts | 347° |
| 2026-04-18 19:39 | 48.06481 | -77.78642 | 1104 ft | 11 kts | 351° |
| 2026-04-18 19:40 | 48.06494 | -77.78608 | 1103 ft | 3 kts | 140° |
| 2026-04-18 19:40 | 48.06491 | -77.78607 | 1103 ft | 0 kts | 156° |
| 2026-04-18 19:40 | 48.06445 | -77.78585 | 1103 ft | 35 kts | 170° |
| 2026-04-18 19:40 | 48.05937 | -77.78444 | 1100 ft | 112 kts | 169° |
| 2026-04-18 19:41 | 48.05029 | -77.78180 | 1237 ft | 128 kts | 168° |
| 2026-04-18 19:41 | 48.04119 | -77.77933 | 1370 ft | 161 kts | 171° |
| 2026-04-18 19:41 | 48.02829 | -77.77647 | 1744 ft | 217 kts | 168° |
| 2026-04-18 19:41 | 48.01172 | -77.76909 | 2020 ft | 277 kts | 158° |
| 2026-04-18 19:42 | 47.99577 | -77.75200 | 3064 ft | 298 kts | 133° |
| 2026-04-18 19:42 | 47.98569 | -77.72449 | 4059 ft | 319 kts | 119° |
| 2026-04-18 19:42 | 47.97486 | -77.69464 | 4576 ft | 336 kts | 135° |
| 2026-04-18 19:42 | 47.95744 | -77.67396 | 5994 ft | 318 kts | 158° |
| 2026-04-18 19:43 | 47.93927 | -77.65799 | 7523 ft | 313 kts | 153° |
| 2026-04-18 19:43 | 47.92115 | -77.63787 | 8109 ft | 340 kts | 150° |
| 2026-04-18 19:43 | 47.90194 | -77.61673 | 9151 ft | 348 kts | 152° |
| 2026-04-18 19:43 | 47.88208 | -77.59584 | 10116 ft | 358 kts | 153° |
| 2026-04-18 19:44 | 47.86117 | -77.57405 | 11214 ft | 364 kts | 153° |
| 2026-04-18 19:44 | 47.81950 | -77.53077 | 12824 ft | 375 kts | 153° |
| 2026-04-18 19:44 | 47.73361 | -77.44201 | 16318 ft | 386 kts | 154° |
| 2026-04-18 19:45 | 47.68936 | -77.39643 | 17668 ft | 393 kts | 154° |
| 2026-04-18 19:45 | 47.64399 | -77.34977 | 18945 ft | 399 kts | 154° |
| 2026-04-18 19:45 | 47.59818 | -77.30283 | 19987 ft | 406 kts | 154° |
| 2026-04-18 19:45 | 47.55155 | -77.25520 | 20849 ft | 413 kts | 154° |
| 2026-04-18 19:46 | 47.50410 | -77.20690 | 21827 ft | 418 kts | 154° |
| 2026-04-18 19:46 | 47.45599 | -77.15804 | 22488 ft | 426 kts | 153° |
| 2026-04-18 19:46 | 47.40722 | -77.10861 | 23328 ft | 430 kts | 153° |
| 2026-04-18 19:46 | 47.35749 | -77.05834 | 23880 ft | 437 kts | 153° |
| 2026-04-18 19:47 | 47.30687 | -77.00729 | 24585 ft | 442 kts | 153° |
| 2026-04-18 19:47 | 47.25616 | -76.95620 | 25173 ft | 447 kts | 153° |
| 2026-04-18 19:47 | 47.20477 | -76.90460 | 25715 ft | 452 kts | 153° |
| 2026-04-18 19:47 | 47.15284 | -76.85261 | 26356 ft | 456 kts | 153° |
| 2026-04-18 19:48 | 47.10044 | -76.80022 | 26847 ft | 461 kts | 153° |
| 2026-04-18 19:48 | 47.04745 | -76.74744 | 27270 ft | 466 kts | 153° |
| 2026-04-18 19:48 | 46.99399 | -76.69430 | 27954 ft | 468 kts | 153° |
| 2026-04-18 19:48 | 46.93994 | -76.64065 | 28684 ft | 470 kts | 153° |
| 2026-04-18 19:49 | 46.88773 | -76.58899 | 29405 ft | 471 kts | 153° |
| 2026-04-18 19:49 | 46.83329 | -76.53523 | 30229 ft | 471 kts | 152° |
| 2026-04-18 19:49 | 46.77931 | -76.48207 | 31148 ft | 470 kts | 152° |
| 2026-04-18 19:49 | 46.72546 | -76.42916 | 31984 ft | 470 kts | 152° |
| 2026-04-18 19:50 | 46.67171 | -76.37644 | 32927 ft | 467 kts | 152° |
| 2026-04-18 19:50 | 46.61791 | -76.32382 | 33780 ft | 466 kts | 153° |
| 2026-04-18 19:50 | 46.56400 | -76.27126 | 34535 ft | 465 kts | 153° |
| 2026-04-18 19:50 | 46.51048 | -76.21924 | 34746 ft | 466 kts | 153° |
| 2026-04-18 19:51 | 46.45735 | -76.16767 | 34696 ft | 456 kts | 153° |
| 2026-04-18 19:51 | 46.40572 | -76.11748 | 34708 ft | 443 kts | 153° |
| 2026-04-18 19:51 | 46.35509 | -76.06853 | 34711 ft | 438 kts | 153° |
| 2026-04-18 19:52 | 46.25337 | -75.97106 | 34727 ft | 444 kts | 153° |
| 2026-04-18 19:52 | 46.15019 | -75.87223 | 34755 ft | 446 kts | 153° |
| 2026-04-18 19:53 | 46.04733 | -75.77406 | 34773 ft | 446 kts | 153° |
| 2026-04-18 19:53 | 45.89282 | -75.62754 | 34773 ft | 446 kts | 153° |
| 2026-04-18 19:54 | 45.78900 | -75.52966 | 34771 ft | 447 kts | 153° |
| 2026-04-18 19:54 | 45.68540 | -75.43243 | 34772 ft | 448 kts | 153° |
| 2026-04-18 19:55 | 45.61859 | -75.36996 | 34772 ft | 450 kts | 153° |
| 2026-04-18 19:55 | 45.56614 | -75.32108 | 34771 ft | 450 kts | 153° |
| 2026-04-18 19:56 | 45.51404 | -75.27262 | 34771 ft | 450 kts | 153° |
| 2026-04-18 19:56 | 45.46184 | -75.22419 | 34771 ft | 451 kts | 153° |
| 2026-04-18 19:57 | 45.40942 | -75.17565 | 34771 ft | 452 kts | 153° |
| 2026-04-18 19:57 | 45.35673 | -75.12698 | 34771 ft | 453 kts | 153° |
| 2026-04-18 19:58 | 45.30418 | -75.07851 | 34777 ft | 452 kts | 153° |
| 2026-04-18 19:58 | 45.25167 | -75.03020 | 34790 ft | 453 kts | 153° |
| 2026-04-18 19:59 | 45.19882 | -74.98171 | 34803 ft | 454 kts | 153° |
| 2026-04-18 19:59 | 45.14612 | -74.93342 | 34816 ft | 453 kts | 153° |
| 2026-04-18 20:00 | 45.09340 | -74.88522 | 34829 ft | 453 kts | 153° |
| 2026-04-18 20:00 | 45.04052 | -74.83702 | 34836 ft | 454 kts | 153° |
| 2026-04-18 20:01 | 44.98749 | -74.78876 | 34835 ft | 454 kts | 153° |
| 2026-04-18 20:01 | 44.84288 | -74.67259 | 34817 ft | 446 kts | 164° |
| 2026-04-18 20:02 | 44.69279 | -74.61619 | 34842 ft | 441 kts | 172° |
| 2026-04-18 20:02 | 44.63299 | -74.59434 | 34835 ft | 449 kts | 169° |
| 2026-04-18 20:03 | 44.57296 | -74.57013 | 34835 ft | 453 kts | 168° |
| 2026-04-18 20:03 | 44.51380 | -74.53990 | 34836 ft | 459 kts | 160° |
| 2026-04-18 20:04 | 44.45525 | -74.50589 | 34836 ft | 456 kts | 165° |
| 2026-04-18 20:04 | 44.39542 | -74.47712 | 34849 ft | 455 kts | 166° |
| 2026-04-18 20:05 | 44.33542 | -74.45045 | 34863 ft | 455 kts | 167° |
| 2026-04-18 20:05 | 44.27518 | -74.42491 | 34871 ft | 455 kts | 169° |
| 2026-04-18 20:06 | 44.13083 | -74.38192 | 34869 ft | 453 kts | 171° |
| 2026-04-18 20:06 | 43.88958 | -74.27850 | 34872 ft | 456 kts | 167° |
| 2026-04-18 20:07 | 43.64832 | -74.17667 | 34941 ft | 455 kts | 168° |
| 2026-04-18 20:07 | 43.40585 | -74.07494 | 34980 ft | 457 kts | 167° |
| 2026-04-18 20:08 | 43.16356 | -73.97421 | 35023 ft | 458 kts | 167° |
| 2026-04-18 20:08 | 42.91909 | -73.87366 | 35036 ft | 464 kts | 166° |
| 2026-04-18 20:09 | 42.67057 | -73.77129 | 35040 ft | 466 kts | 165° |
| 2026-04-18 20:09 | 42.42565 | -73.66212 | 34908 ft | 460 kts | 165° |
| 2026-04-18 20:10 | 42.30610 | -73.61017 | 33227 ft | 447 kts | 165° |
| 2026-04-18 20:10 | 42.19014 | -73.56079 | 31819 ft | 433 kts | 164° |
| 2026-04-18 20:10 | 42.08874 | -73.51722 | 30103 ft | 422 kts | 163° |
| 2026-04-18 20:10 | 42.06107 | -73.50527 | 29095 ft | 425 kts | 164° |
| 2026-04-18 20:11 | 42.03274 | -73.49307 | 28216 ft | 434 kts | 164° |
| 2026-04-18 20:11 | 42.00399 | -73.48074 | 27727 ft | 441 kts | 164° |
| 2026-04-18 20:11 | 41.97450 | -73.46814 | 27061 ft | 457 kts | 163° |
| 2026-04-18 20:11 | 41.94395 | -73.45511 | 26335 ft | 466 kts | 164° |
| 2026-04-18 20:12 | 41.91355 | -73.44209 | 25605 ft | 458 kts | 164° |
| 2026-04-18 20:12 | 41.88333 | -73.42916 | 24728 ft | 455 kts | 164° |
| 2026-04-18 20:12 | 41.85349 | -73.41656 | 23721 ft | 450 kts | 162° |
| 2026-04-18 20:12 | 41.82388 | -73.40427 | 22717 ft | 444 kts | 162° |
| 2026-04-18 20:13 | 41.79487 | -73.39189 | 21717 ft | 438 kts | 162° |
| 2026-04-18 20:13 | 41.76630 | -73.37962 | 20718 ft | 433 kts | 162° |
| 2026-04-18 20:13 | 41.73805 | -73.36754 | 19718 ft | 427 kts | 162° |
| 2026-04-18 20:13 | 41.71018 | -73.35567 | 18720 ft | 422 kts | 162° |
| 2026-04-18 20:14 | 41.68509 | -73.34499 | 17811 ft | 417 kts | 162° |
| 2026-04-18 20:14 | 41.66079 | -73.33466 | 16920 ft | 413 kts | 162° |
| 2026-04-18 20:14 | 41.63363 | -73.32314 | 15915 ft | 408 kts | 162° |
| 2026-04-18 20:14 | 41.60700 | -73.31186 | 14916 ft | 403 kts | 162° |
| 2026-04-18 20:15 | 41.58070 | -73.30074 | 13919 ft | 399 kts | 162° |
| 2026-04-18 20:15 | 41.55467 | -73.28974 | 12920 ft | 394 kts | 163° |
| 2026-04-18 20:15 | 41.52904 | -73.27892 | 12248 ft | 381 kts | 163° |
| 2026-04-18 20:15 | 41.50452 | -73.26859 | 11997 ft | 368 kts | 163° |
| 2026-04-18 20:16 | 41.48015 | -73.25831 | 11751 ft | 368 kts | 163° |
| 2026-04-18 20:16 | 41.45638 | -73.24818 | 11487 ft | 349 kts | 164° |
| 2026-04-18 20:16 | 41.43390 | -73.23875 | 11236 ft | 332 kts | 164° |
| 2026-04-18 20:16 | 41.41245 | -73.22978 | 10986 ft | 317 kts | 164° |
| 2026-04-18 20:17 | 41.39192 | -73.22117 | 10735 ft | 305 kts | 164° |
| 2026-04-18 20:17 | 41.37211 | -73.21286 | 10484 ft | 294 kts | 164° |
| 2026-04-18 20:17 | 41.35308 | -73.20489 | 10234 ft | 284 kts | 164° |
| 2026-04-18 20:17 | 41.33460 | -73.19715 | 9984 ft | 276 kts | 164° |
| 2026-04-18 20:18 | 41.31639 | -73.18953 | 9734 ft | 273 kts | 164° |
| 2026-04-18 20:18 | 41.29842 | -73.18201 | 9485 ft | 272 kts | 164° |
| 2026-04-18 20:18 | 41.28054 | -73.17453 | 9236 ft | 270 kts | 164° |
| 2026-04-18 20:18 | 41.26274 | -73.16709 | 8987 ft | 269 kts | 164° |
| 2026-04-18 20:19 | 41.24508 | -73.15970 | 8738 ft | 267 kts | 164° |
| 2026-04-18 20:19 | 41.22747 | -73.15234 | 8488 ft | 266 kts | 164° |
| 2026-04-18 20:19 | 41.20994 | -73.14502 | 8239 ft | 265 kts | 164° |
| 2026-04-18 20:19 | 41.19232 | -73.13770 | 7988 ft | 264 kts | 164° |
| 2026-04-18 20:20 | 41.17491 | -73.13056 | 7738 ft | 263 kts | 166° |
| 2026-04-18 20:20 | 41.15709 | -73.12916 | 7479 ft | 258 kts | 194° |
| 2026-04-18 20:20 | 41.14091 | -73.13843 | 7242 ft | 251 kts | 209° |
| 2026-04-18 20:20 | 41.12543 | -73.14823 | 6986 ft | 246 kts | 200° |
| 2026-04-18 20:21 | 41.10910 | -73.15471 | 6516 ft | 250 kts | 196° |
| 2026-04-18 20:21 | 41.09241 | -73.16111 | 6020 ft | 253 kts | 197° |
| 2026-04-18 20:21 | 41.07539 | -73.16776 | 5520 ft | 257 kts | 197° |
| 2026-04-18 20:21 | 41.05836 | -73.17459 | 5020 ft | 259 kts | 197° |
| 2026-04-18 20:22 | 41.04125 | -73.18180 | 4519 ft | 261 kts | 197° |
| 2026-04-18 20:22 | 41.02412 | -73.18908 | 4125 ft | 258 kts | 197° |
| 2026-04-18 20:22 | 41.00762 | -73.19630 | 4032 ft | 243 kts | 197° |
| 2026-04-18 20:22 | 40.99209 | -73.20304 | 4040 ft | 234 kts | 197° |
| 2026-04-18 20:23 | 40.97624 | -73.21004 | 4054 ft | 242 kts | 197° |
| 2026-04-18 20:23 | 40.96030 | -73.21708 | 4046 ft | 244 kts | 197° |
| 2026-04-18 20:23 | 40.94431 | -73.22415 | 4045 ft | 242 kts | 197° |
| 2026-04-18 20:23 | 40.92848 | -73.23123 | 4045 ft | 241 kts | 197° |
| 2026-04-18 20:24 | 40.91257 | -73.23824 | 4046 ft | 242 kts | 197° |
| 2026-04-18 20:24 | 40.89664 | -73.24523 | 4045 ft | 242 kts | 197° |
| 2026-04-18 20:24 | 40.88023 | -73.25236 | 4056 ft | 259 kts | 197° |
| 2026-04-18 20:24 | 40.86294 | -73.25982 | 4046 ft | 265 kts | 197° |
| 2026-04-18 20:25 | 40.84549 | -73.26751 | 4040 ft | 264 kts | 197° |
| 2026-04-18 20:25 | 40.82814 | -73.27502 | 4049 ft | 263 kts | 197° |
| 2026-04-18 20:25 | 40.81085 | -73.28256 | 4045 ft | 264 kts | 197° |
| 2026-04-18 20:25 | 40.79335 | -73.29012 | 4028 ft | 264 kts | 197° |
| 2026-04-18 20:26 | 40.77602 | -73.29756 | 4016 ft | 261 kts | 197° |
| 2026-04-18 20:26 | 40.75939 | -73.30463 | 4008 ft | 243 kts | 197° |
| 2026-04-18 20:26 | 40.74393 | -73.31115 | 4013 ft | 226 kts | 194° |
| 2026-04-18 20:26 | 40.72876 | -73.31163 | 3865 ft | 221 kts | 162° |
| 2026-04-18 20:27 | 40.71652 | -73.29990 | 3373 ft | 227 kts | 124° |
| 2026-04-18 20:27 | 40.70892 | -73.28162 | 2894 ft | 232 kts | 116° |
| 2026-04-18 20:27 | 40.70165 | -73.26274 | 2387 ft | 229 kts | 117° |
| 2026-04-18 20:27 | 40.69471 | -73.24493 | 2127 ft | 207 kts | 117° |
| 2026-04-18 20:28 | 40.68854 | -73.22912 | 2153 ft | 191 kts | 117° |
| 2026-04-18 20:28 | 40.68235 | -73.21317 | 2166 ft | 197 kts | 117° |
| 2026-04-18 20:28 | 40.67623 | -73.19730 | 2154 ft | 186 kts | 117° |
| 2026-04-18 20:28 | 40.67107 | -73.18240 | 2140 ft | 178 kts | 107° |
| 2026-04-18 20:29 | 40.67134 | -73.16640 | 2125 ft | 181 kts | 66° |
| 2026-04-18 20:29 | 40.68067 | -73.15575 | 2130 ft | 187 kts | 19° |
| 2026-04-18 20:29 | 40.69306 | -73.15372 | 2148 ft | 171 kts | 6° |
| 2026-04-18 20:29 | 40.70471 | -73.15262 | 2141 ft | 168 kts | 7° |
| 2026-04-18 20:30 | 40.71629 | -73.15150 | 2140 ft | 168 kts | 6° |
| 2026-04-18 20:30 | 40.72804 | -73.15533 | 1700 ft | 172 kts | 349° |
| 2026-04-18 20:30 | 40.73803 | -73.15322 | 1898 ft | 142 kts | 34° |
| 2026-04-18 20:30 | 40.74697 | -73.14546 | 1975 ft | 163 kts | 28° |
| 2026-04-18 20:31 | 40.75746 | -73.13978 | 1807 ft | 166 kts | 23° |
| 2026-04-18 20:31 | 40.76796 | -73.13470 | 1471 ft | 157 kts | 25° |
| 2026-04-18 20:31 | 40.77750 | -73.12905 | 1328 ft | 139 kts | 41° |
| 2026-04-18 20:31 | 40.78402 | -73.12020 | 633 ft | 139 kts | 59° |
| 2026-04-18 20:32 | 40.79102 | -73.11104 | 252 ft | 146 kts | 44° |
| 2026-04-18 20:32 | 40.79757 | -73.10262 | 239 ft | 133 kts | 43° |
| 2026-04-18 20:32 | 40.80364 | -73.09427 | 544 ft | 109 kts | 70° |
| 2026-04-18 20:32 | 40.80152 | -73.08441 | 861 ft | 126 kts | 148° |
| 2026-04-18 20:33 | 40.79341 | -73.08466 | 722 ft | 137 kts | 209° |
| 2026-04-18 20:33 | 40.78724 | -73.09299 | 868 ft | 130 kts | 226° |
| 2026-04-18 20:33 | 40.78140 | -73.10263 | 908 ft | 131 kts | 226° |
| 2026-04-18 20:33 | 40.77550 | -73.11176 | 855 ft | 132 kts | 225° |
| 2026-04-18 20:34 | 40.76967 | -73.12097 | 736 ft | 138 kts | 227° |
| 2026-04-18 20:34 | 40.76824 | -73.13254 | 1156 ft | 126 kts | 291° |
| 2026-04-18 20:34 | 40.77619 | -73.13786 | 842 ft | 159 kts | 29° |
| 2026-04-18 20:34 | 40.78216 | -73.12826 | 677 ft | 139 kts | 59° |
| 2026-04-18 20:35 | 40.78672 | -73.11684 | 278 ft | 139 kts | 61° |
| 2026-04-18 20:35 | 40.79231 | -73.10779 | 94 ft | 115 kts | 49° |
| 2026-04-18 20:35 | 40.79618 | -73.10256 | 92 ft | 38 kts | 52° |
| 2026-04-18 20:35 | 40.79631 | -73.10166 | 92 ft | 5 kts | 125° |
| 2026-04-18 20:36 | 40.79577 | -73.10101 | 91 ft | 0 kts | 151° |
| 2026-04-18 20:36 | 40.79575 | -73.10099 | 91 ft | 1 kts | 150° |
| 2026-04-18 20:36 | 40.79549 | -73.10094 | 91 ft | 9 kts | 179° |
| 2026-04-18 20:36 | 40.79455 | -73.10090 | 90 ft | 17 kts | 178° |